createdAt,value
2019-03-24T00:00:47.297Z,75.90
2019-03-24T00:01:47.274Z,78.10
2019-03-24T00:02:47.270Z,71.00
2019-03-24T00:03:47.270Z,69.60
2019-03-24T00:04:47.267Z,77.20
2019-03-24T00:05:47.306Z,73.30
2019-03-24T00:06:47.259Z,74.00
2019-03-24T00:07:47.262Z,71.40
2019-03-24T00:08:47.255Z,74.60
2019-03-24T00:09:47.256Z,69.20
2019-03-24T00:10:47.291Z,72.70
2019-03-24T00:11:47.250Z,75.40
2019-03-24T00:12:47.247Z,73.10
2019-03-24T00:13:47.252Z,72.40
2019-03-24T00:14:47.248Z,76.00
2019-03-24T00:15:47.268Z,75.10
2019-03-24T00:16:47.242Z,78.40
2019-03-24T00:17:47.248Z,74.30
2019-03-24T00:18:47.236Z,73.90
2019-03-24T00:19:47.248Z,66.00
2019-03-24T00:20:47.271Z,72.90
2019-03-24T00:21:47.235Z,75.80
2019-03-24T00:22:47.229Z,78.90
2019-03-24T00:23:47.228Z,74.40
2019-03-24T00:24:47.227Z,73.20
2019-03-24T00:25:47.251Z,70.90
2019-03-24T00:26:47.225Z,72.90
2019-03-24T00:27:47.220Z,70.90
2019-03-24T00:28:47.217Z,76.80
2019-03-24T00:29:47.223Z,74.30
2019-03-24T00:30:47.240Z,74.10
2019-03-24T00:31:47.210Z,73.80
2019-03-24T00:32:47.236Z,80.20
2019-03-24T00:33:47.208Z,72.90
2019-03-24T00:34:48.151Z,71.90
2019-03-24T00:35:47.205Z,70.50
2019-03-24T00:36:47.231Z,73.80
2019-03-24T00:37:47.203Z,72.30
2019-03-24T00:38:47.193Z,74.30
2019-03-24T00:39:47.197Z,74.40
2019-03-24T00:40:47.223Z,75.90
2019-03-24T00:41:47.192Z,72.50
2019-03-24T00:42:47.216Z,73.10
2019-03-24T00:43:47.188Z,76.10
2019-03-24T00:44:47.195Z,64.10
2019-03-24T00:45:47.202Z,74.30
2019-03-24T00:46:47.213Z,74.00
2019-03-24T00:47:49.384Z,75.60
2019-03-24T00:48:47.177Z,76.40
2019-03-24T00:49:47.182Z,70.40
2019-03-24T00:50:47.206Z,71.40
2019-03-24T00:51:47.173Z,74.10
2019-03-24T00:52:47.173Z,66.50
2019-03-24T00:53:47.173Z,73.00
2019-03-24T00:54:47.167Z,75.20
2019-03-24T00:55:47.191Z,68.30
2019-03-24T00:56:47.164Z,74.70
2019-03-24T00:57:47.159Z,74.00
2019-03-24T00:58:47.158Z,70.20
2019-03-24T00:59:47.163Z,70.50
2019-03-24T01:00:47.185Z,71.70
2019-03-24T01:01:47.154Z,73.30
2019-03-24T01:02:47.154Z,72.40
2019-03-24T01:03:47.150Z,75.00
2019-03-24T01:04:47.150Z,74.00
2019-03-24T01:05:47.175Z,72.70
2019-03-24T01:06:47.144Z,73.30
2019-03-24T01:07:47.140Z,68.10
2019-03-24T01:08:47.153Z,76.10
2019-03-24T01:09:47.138Z,76.10
2019-03-24T01:10:47.171Z,71.40
2019-03-24T01:11:47.137Z,73.90
2019-03-24T01:12:47.135Z,70.60
2019-03-24T01:13:47.135Z,70.20
2019-03-24T01:14:47.134Z,73.20
2019-03-24T01:15:47.855Z,71.70
2019-03-24T01:16:47.126Z,67.30
2019-03-24T01:17:47.122Z,70.60
2019-03-24T01:18:47.131Z,71.00
2019-03-24T01:19:47.116Z,74.40
2019-03-24T01:20:47.147Z,73.50
2019-03-24T01:21:47.124Z,69.80
2019-03-24T01:22:47.115Z,69.40
2019-03-24T01:23:47.111Z,71.80
2019-03-24T01:24:47.112Z,72.00
2019-03-24T01:25:47.136Z,72.20
2019-03-24T01:26:47.108Z,77.30
2019-03-24T01:27:47.111Z,73.40
2019-03-24T01:28:47.107Z,69.70
2019-03-24T01:29:47.101Z,77.70
2019-03-24T01:30:47.130Z,74.60
2019-03-24T01:31:47.101Z,73.50
2019-03-24T01:32:47.097Z,74.00
2019-03-24T01:33:47.104Z,71.00
2019-03-24T01:34:47.096Z,76.20
2019-03-24T01:35:47.121Z,74.30
2019-03-24T01:36:47.094Z,72.40
2019-03-24T01:37:47.088Z,74.20
2019-03-24T01:38:47.090Z,75.50
2019-03-24T01:39:47.218Z,72.40
2019-03-24T01:40:47.113Z,77.90
2019-03-24T01:41:47.085Z,76.50
2019-03-24T01:42:47.080Z,71.80
2019-03-24T01:43:47.078Z,73.10
2019-03-24T01:44:47.077Z,76.80
2019-03-24T01:45:54.408Z,71.90
2019-03-24T01:46:47.070Z,76.30
2019-03-24T01:47:47.073Z,74.60
2019-03-24T01:48:47.069Z,77.00
2019-03-24T01:49:47.067Z,75.50
2019-03-24T01:50:47.090Z,73.10
2019-03-24T01:51:47.061Z,74.30
2019-03-24T01:52:47.054Z,71.90
2019-03-24T01:53:47.060Z,70.70
2019-03-24T01:54:47.090Z,71.30
2019-03-24T01:55:47.056Z,76.10
2019-03-24T01:56:47.052Z,77.10
2019-03-24T01:57:47.049Z,72.30
2019-03-24T01:58:47.075Z,78.40
2019-03-24T01:59:47.043Z,78.10
2019-03-24T02:00:47.078Z,73.30
2019-03-24T02:01:47.044Z,76.40
2019-03-24T02:02:47.043Z,74.80
2019-03-24T02:03:47.040Z,76.00
2019-03-24T02:04:47.069Z,76.90
2019-03-24T02:05:47.032Z,78.90
2019-03-24T02:06:47.031Z,76.70
2019-03-24T02:07:47.029Z,74.70
2019-03-24T02:08:47.028Z,76.60
2019-03-24T02:09:47.055Z,71.90
2019-03-24T02:10:47.024Z,76.50
2019-03-24T02:11:47.023Z,74.00
2019-03-24T02:12:47.020Z,78.10
2019-03-24T02:13:47.022Z,78.40
2019-03-24T02:14:47.047Z,81.20
2019-03-24T02:15:47.017Z,80.90
2019-03-24T02:16:47.013Z,77.40
2019-03-24T02:17:47.548Z,83.80
2019-03-24T02:18:47.010Z,78.30
2019-03-24T02:19:47.049Z,76.30
2019-03-24T02:20:47.004Z,82.00
2019-03-24T02:21:47.004Z,79.00
2019-03-24T02:22:47.001Z,77.30
2019-03-24T02:23:47.000Z,82.00
2019-03-24T02:24:47.031Z,82.30
2019-03-24T02:25:46.999Z,78.60
2019-03-24T02:26:46.994Z,82.80
2019-03-24T02:27:47.000Z,79.50
2019-03-24T02:28:46.989Z,77.90
2019-03-24T02:29:47.021Z,84.60
2019-03-24T02:30:46.990Z,87.00
2019-03-24T02:31:46.992Z,80.40
2019-03-24T02:32:46.984Z,85.60
2019-03-24T02:33:46.991Z,77.80
2019-03-24T02:34:47.018Z,83.20
2019-03-24T02:35:46.989Z,80.30
2019-03-24T02:36:46.985Z,77.60
2019-03-24T02:37:46.971Z,74.40
2019-03-24T02:38:46.969Z,83.60
2019-03-24T02:39:46.996Z,77.90
2019-03-24T02:40:46.971Z,80.10
2019-03-24T02:41:46.964Z,80.20
2019-03-24T02:42:46.971Z,78.00
2019-03-24T02:43:46.963Z,87.80
2019-03-24T02:44:46.968Z,89.60
2019-03-24T02:45:46.984Z,86.00
2019-03-24T02:46:46.959Z,92.20
2019-03-24T02:47:46.953Z,93.90
2019-03-24T02:48:46.952Z,90.30
2019-03-24T02:49:46.952Z,95.80
2019-03-24T02:50:46.981Z,95.00
2019-03-24T02:51:46.947Z,89.90
2019-03-24T02:52:46.949Z,98.50
2019-03-24T02:53:46.953Z,95.70
2019-03-24T02:54:46.971Z,90.30
2019-03-24T02:55:46.942Z,94.30
2019-03-24T02:56:46.939Z,96.20
2019-03-24T02:57:46.932Z,94.10
2019-03-24T02:58:46.935Z,95.60
2019-03-24T02:59:46.968Z,91.00
2019-03-24T03:00:46.931Z,96.70
2019-03-24T03:01:46.932Z,96.30
2019-03-24T03:02:46.928Z,94.10
2019-03-24T03:03:46.928Z,89.90
2019-03-24T03:04:46.948Z,99.70
2019-03-24T03:05:46.924Z,98.10
2019-03-24T03:06:46.919Z,98.70
2019-03-24T03:07:46.917Z,105.50
2019-03-24T03:08:46.923Z,102.80
2019-03-24T03:09:46.945Z,103.50
2019-03-24T03:10:46.915Z,99.00
2019-03-24T03:11:46.909Z,107.00
2019-03-24T03:12:47.877Z,102.30
2019-03-24T03:13:46.902Z,94.80
2019-03-24T03:14:46.933Z,98.50
2019-03-24T03:15:46.901Z,100.40
2019-03-24T03:16:46.898Z,98.90
2019-03-24T03:17:46.965Z,113.80
2019-03-24T03:18:46.896Z,108.70
2019-03-24T03:19:46.928Z,110.60
2019-03-24T03:20:46.899Z,104.40
2019-03-24T03:21:46.894Z,107.00
2019-03-24T03:22:46.894Z,98.00
2019-03-24T03:23:46.892Z,109.40
2019-03-24T03:24:46.920Z,105.00
2019-03-24T03:25:46.883Z,108.00
2019-03-24T03:26:46.885Z,104.70
2019-03-24T03:27:46.877Z,103.60
2019-03-24T03:28:46.879Z,102.50
2019-03-24T03:29:46.907Z,99.60
2019-03-24T03:30:46.875Z,101.40
2019-03-24T03:31:46.874Z,106.60
2019-03-24T03:32:46.869Z,107.40
2019-03-24T03:33:46.870Z,103.20
2019-03-24T03:34:46.895Z,103.60
2019-03-24T03:35:46.871Z,102.30
2019-03-24T03:36:46.893Z,104.20
2019-03-24T03:37:46.876Z,108.60
2019-03-24T03:38:46.865Z,104.20
2019-03-24T03:39:46.892Z,109.60
2019-03-24T03:40:46.863Z,106.20
2019-03-24T03:41:46.862Z,105.70
2019-03-24T03:42:46.849Z,102.00
2019-03-24T03:43:46.844Z,106.00
2019-03-24T03:44:46.881Z,109.60
2019-03-24T03:45:46.868Z,107.70
2019-03-24T03:46:52.333Z,104.30
2019-03-24T03:47:46.839Z,112.50
2019-03-24T03:48:46.843Z,106.30
2019-03-24T03:49:46.840Z,104.70
2019-03-24T03:50:46.864Z,98.20
2019-03-24T03:51:46.836Z,108.60
2019-03-24T03:52:46.835Z,110.10
2019-03-24T03:53:46.828Z,108.20
2019-03-24T03:54:46.839Z,109.90
2019-03-24T03:55:46.857Z,107.90
2019-03-24T03:56:46.823Z,99.00
2019-03-24T03:57:46.820Z,106.40
2019-03-24T03:58:46.827Z,113.20
2019-03-24T03:59:46.818Z,107.60
2019-03-24T04:00:46.850Z,106.70
2019-03-24T04:01:46.812Z,102.20
2019-03-24T04:02:46.812Z,103.80
2019-03-24T04:03:46.808Z,103.20
2019-03-24T04:04:46.811Z,107.50
2019-03-24T04:05:46.835Z,109.10
2019-03-24T04:06:46.807Z,111.50
2019-03-24T04:07:46.795Z,113.40
2019-03-24T04:08:46.800Z,111.50
2019-03-24T04:09:46.802Z,106.90
2019-03-24T04:10:46.820Z,101.20
2019-03-24T04:11:46.794Z,108.50
2019-03-24T04:12:46.796Z,108.90
2019-03-24T04:13:46.791Z,107.40
2019-03-24T04:14:46.790Z,102.20
2019-03-24T04:15:46.825Z,106.70
2019-03-24T04:16:46.785Z,110.50
2019-03-24T04:17:46.784Z,105.90
2019-03-24T04:18:46.783Z,110.60
2019-03-24T04:19:46.781Z,97.60
2019-03-24T04:20:46.808Z,108.00
2019-03-24T04:21:46.773Z,101.00
2019-03-24T04:22:46.769Z,109.80
2019-03-24T04:23:46.769Z,97.70
2019-03-24T04:24:46.765Z,103.30
2019-03-24T04:25:46.796Z,114.00
2019-03-24T04:26:46.765Z,111.90
2019-03-24T04:27:46.766Z,115.30
2019-03-24T04:28:46.759Z,112.20
2019-03-24T04:29:46.761Z,116.40
2019-03-24T04:30:46.782Z,112.40
2019-03-24T04:31:46.754Z,107.50
2019-03-24T04:32:46.751Z,110.10
2019-03-24T04:33:46.757Z,114.10
2019-03-24T04:34:46.743Z,111.40
2019-03-24T04:35:46.773Z,111.30
2019-03-24T04:36:46.745Z,111.30
2019-03-24T04:37:46.755Z,113.10
2019-03-24T04:38:46.743Z,112.60
2019-03-24T04:39:46.742Z,112.10
2019-03-24T04:40:46.763Z,106.60
2019-03-24T04:41:46.730Z,114.00
2019-03-24T04:42:46.735Z,109.30
2019-03-24T04:43:46.728Z,117.80
2019-03-24T04:44:46.725Z,111.30
2019-03-24T04:45:46.754Z,109.50
2019-03-24T04:46:46.751Z,112.70
2019-03-24T04:47:46.715Z,111.90
2019-03-24T04:48:46.722Z,106.80
2019-03-24T04:49:46.711Z,109.00
2019-03-24T04:50:46.714Z,111.80
2019-03-24T04:51:46.739Z,105.20
2019-03-24T04:52:46.706Z,110.40
2019-03-24T04:53:46.710Z,108.90
2019-03-24T04:54:46.702Z,112.40
2019-03-24T04:55:46.697Z,110.80
2019-03-24T04:56:46.750Z,119.90
2019-03-24T04:57:46.701Z,110.50
2019-03-24T04:58:46.694Z,111.50
2019-03-24T04:59:46.698Z,109.00
2019-03-24T05:00:46.693Z,108.90
2019-03-24T05:01:46.720Z,110.80
2019-03-24T05:02:46.693Z,109.00
2019-03-24T05:03:46.695Z,114.80
2019-03-24T05:04:47.291Z,108.10
2019-03-24T05:05:46.684Z,110.60
2019-03-24T05:06:46.738Z,103.80
2019-03-24T05:07:46.682Z,102.20
2019-03-24T05:08:46.673Z,101.00
2019-03-24T05:09:46.670Z,108.50
2019-03-24T05:10:46.670Z,108.50
2019-03-24T05:11:46.696Z,110.30
2019-03-24T05:12:46.699Z,116.50
2019-03-24T05:13:46.664Z,113.90
2019-03-24T05:14:46.661Z,102.10
2019-03-24T05:15:46.660Z,105.40
2019-03-24T05:16:46.659Z,109.20
2019-03-24T05:17:46.681Z,109.00
2019-03-24T05:18:46.657Z,106.00
2019-03-24T05:19:46.651Z,105.50
2019-03-24T05:20:46.649Z,107.10
2019-03-24T05:21:46.653Z,110.20
2019-03-24T05:22:46.672Z,104.30
2019-03-24T05:23:46.643Z,106.60
2019-03-24T05:24:46.645Z,108.90
2019-03-24T05:25:46.675Z,109.50
2019-03-24T05:26:46.636Z,108.20
2019-03-24T05:27:46.660Z,110.20
2019-03-24T05:28:46.632Z,112.90
2019-03-24T05:29:46.628Z,109.60
2019-03-24T05:30:46.628Z,115.90
2019-03-24T05:31:46.624Z,112.00
2019-03-24T05:32:46.648Z,112.60
2019-03-24T05:33:46.652Z,108.10
2019-03-24T05:34:46.616Z,109.10
2019-03-24T05:35:46.618Z,109.70
2019-03-24T05:36:46.613Z,117.20
2019-03-24T05:37:46.613Z,95.40
2019-03-24T05:38:46.637Z,122.40
2019-03-24T05:39:46.605Z,111.30
2019-03-24T05:40:46.605Z,117.30
2019-03-24T05:41:46.609Z,113.40
2019-03-24T05:42:46.604Z,114.70
2019-03-24T05:43:46.624Z,121.50
2019-03-24T05:44:46.702Z,128.80
2019-03-24T05:45:46.593Z,115.10
2019-03-24T05:46:46.593Z,124.50
2019-03-24T05:47:46.589Z,122.90
2019-03-24T05:48:46.613Z,121.40
2019-03-24T05:49:46.586Z,120.20
2019-03-24T05:50:46.585Z,123.40
2019-03-24T05:51:46.581Z,124.90
2019-03-24T05:52:46.577Z,112.70
2019-03-24T05:53:46.602Z,118.10
2019-03-24T05:54:46.573Z,123.30
2019-03-24T05:55:46.571Z,123.60
2019-03-24T05:56:46.570Z,112.80
2019-03-24T05:57:46.565Z,117.50
2019-03-24T05:58:46.593Z,112.00
2019-03-24T05:59:46.566Z,115.40
2019-03-24T06:00:46.558Z,117.50
2019-03-24T06:01:46.555Z,122.70
2019-03-24T06:02:46.554Z,112.80
2019-03-24T06:03:46.577Z,120.20
2019-03-24T06:04:46.550Z,120.80
2019-03-24T06:05:46.546Z,122.30
2019-03-24T06:06:46.546Z,125.80
2019-03-24T06:07:46.542Z,122.40
2019-03-24T06:08:46.565Z,127.70
2019-03-24T06:09:46.538Z,125.70
2019-03-24T06:10:46.534Z,125.50
2019-03-24T06:11:46.534Z,122.10
2019-03-24T06:12:46.531Z,116.70
2019-03-24T06:13:46.557Z,133.20
2019-03-24T06:14:46.529Z,115.40
2019-03-24T06:15:46.526Z,130.80
2019-03-24T06:16:46.523Z,128.00
2019-03-24T06:17:47.999Z,130.80
2019-03-24T06:18:46.542Z,132.10
2019-03-24T06:19:46.515Z,125.50
2019-03-24T06:20:46.510Z,129.40
2019-03-24T06:21:46.513Z,126.20
2019-03-24T06:22:46.507Z,135.30
2019-03-24T06:23:46.534Z,113.20
2019-03-24T06:24:46.500Z,133.30
2019-03-24T06:25:46.509Z,131.90
2019-03-24T06:26:46.495Z,120.70
2019-03-24T06:27:46.500Z,126.80
2019-03-24T06:28:46.521Z,124.40
2019-03-24T06:29:46.489Z,119.90
2019-03-24T06:30:46.488Z,118.50
2019-03-24T06:31:46.483Z,111.20
2019-03-24T06:32:46.485Z,128.50
2019-03-24T06:33:46.507Z,121.30
2019-03-24T06:34:46.512Z,122.00
2019-03-24T06:35:46.483Z,115.40
2019-03-24T06:36:46.471Z,121.90
2019-03-24T06:37:46.473Z,125.70
2019-03-24T06:38:46.467Z,115.10
2019-03-24T06:39:46.501Z,116.30
2019-03-24T06:40:46.467Z,116.80
2019-03-24T06:41:46.465Z,127.30
2019-03-24T06:42:46.463Z,114.10
2019-03-24T06:43:46.465Z,109.40
2019-03-24T06:44:46.484Z,106.40
2019-03-24T06:45:46.452Z,120.10
2019-03-24T06:46:46.449Z,104.40
2019-03-24T06:47:46.452Z,105.10
2019-03-24T06:48:46.446Z,110.30
2019-03-24T06:49:46.474Z,98.20
2019-03-24T06:50:46.440Z,104.50
2019-03-24T06:51:46.441Z,96.70
2019-03-24T06:52:46.436Z,96.60
2019-03-24T06:53:46.433Z,90.20
2019-03-24T06:54:46.457Z,86.60
2019-03-24T06:55:46.433Z,91.40
2019-03-24T06:56:46.425Z,93.60
2019-03-24T06:57:46.427Z,90.90
2019-03-24T06:58:46.427Z,91.40
2019-03-24T06:59:46.449Z,90.70
2019-03-24T07:00:46.421Z,89.70
2019-03-24T07:01:46.418Z,90.20
2019-03-24T07:02:46.417Z,103.10
2019-03-24T07:03:46.413Z,95.20
2019-03-24T07:04:46.610Z,90.20
2019-03-24T07:05:46.406Z,91.80
2019-03-24T07:06:46.408Z,90.70
2019-03-24T07:07:46.396Z,88.20
2019-03-24T07:08:46.398Z,89.20
2019-03-24T07:09:46.428Z,86.50
2019-03-24T07:10:46.398Z,86.60
2019-03-24T07:11:46.393Z,91.80
2019-03-24T07:12:46.395Z,86.60
2019-03-24T07:13:46.390Z,94.60
2019-03-24T07:14:46.421Z,95.20
2019-03-24T07:15:46.390Z,86.40
2019-03-24T07:16:46.384Z,89.50
2019-03-24T07:17:46.380Z,93.30
2019-03-24T07:18:46.411Z,87.90
2019-03-24T07:19:46.374Z,87.60
2019-03-24T07:20:46.409Z,90.70
2019-03-24T07:21:46.377Z,84.20
2019-03-24T07:22:46.370Z,84.70
2019-03-24T07:23:46.366Z,84.60
2019-03-24T07:24:46.396Z,85.80
2019-03-24T07:25:46.367Z,85.10
2019-03-24T07:26:46.386Z,91.00
2019-03-24T07:27:46.358Z,90.10
2019-03-24T07:28:46.359Z,86.20
2019-03-24T07:29:46.353Z,84.40
2019-03-24T07:30:46.381Z,83.00
2019-03-24T07:31:46.347Z,84.10
2019-03-24T07:32:46.351Z,89.20
2019-03-24T07:33:46.347Z,89.30
2019-03-24T07:34:46.342Z,86.90
2019-03-24T07:35:46.377Z,80.40
2019-03-24T07:36:46.347Z,93.80
2019-03-24T07:37:46.338Z,80.50
2019-03-24T07:38:46.338Z,86.00
2019-03-24T07:39:46.339Z,84.20
2019-03-24T07:40:46.366Z,87.40
2019-03-24T07:41:46.331Z,90.00
2019-03-24T07:42:46.334Z,90.80
2019-03-24T07:43:46.333Z,85.10
2019-03-24T07:44:46.527Z,90.00
2019-03-24T07:45:46.352Z,87.40
2019-03-24T07:46:46.320Z,89.80
2019-03-24T07:47:46.316Z,94.90
2019-03-24T07:48:46.315Z,83.40
2019-03-24T07:49:46.315Z,82.40
2019-03-24T07:50:46.341Z,80.20
2019-03-24T07:51:46.318Z,79.90
2019-03-24T07:52:46.309Z,79.40
2019-03-24T07:53:46.311Z,81.00
2019-03-24T07:54:46.316Z,82.20
2019-03-24T07:55:46.332Z,86.40
2019-03-24T07:56:46.306Z,80.30
2019-03-24T07:57:46.303Z,74.90
2019-03-24T07:58:46.293Z,80.90
2019-03-24T07:59:46.300Z,82.20
2019-03-24T08:00:46.322Z,81.90
2019-03-24T08:01:46.304Z,82.80
2019-03-24T08:02:51.007Z,76.80
2019-03-24T08:03:46.289Z,73.90
2019-03-24T08:04:46.284Z,76.40
2019-03-24T08:05:46.311Z,70.10
2019-03-24T08:06:46.283Z,75.30
2019-03-24T08:07:46.277Z,75.20
2019-03-24T08:08:46.272Z,69.00
2019-03-24T08:09:46.279Z,60.60
2019-03-24T08:10:46.304Z,76.50
2019-03-24T08:11:46.268Z,72.70
2019-03-24T08:12:46.291Z,70.10
2019-03-24T08:13:53.835Z,69.50
2019-03-24T08:14:46.265Z,79.80
2019-03-24T08:15:46.290Z,73.60
2019-03-24T08:16:46.264Z,71.10
2019-03-24T08:17:46.258Z,71.10
2019-03-24T08:18:46.261Z,73.50
2019-03-24T08:19:46.259Z,75.00
2019-03-24T08:20:46.281Z,71.80
2019-03-24T08:21:46.254Z,66.50
2019-03-24T08:22:46.252Z,71.10
2019-03-24T08:23:46.248Z,69.60
2019-03-24T08:24:46.250Z,72.90
2019-03-24T08:25:46.286Z,77.50
2019-03-24T08:26:46.805Z,70.60
2019-03-24T08:27:46.241Z,80.40
2019-03-24T08:28:46.247Z,71.40
2019-03-24T08:29:46.266Z,73.20
2019-03-24T08:30:46.237Z,73.60
2019-03-24T08:31:46.266Z,70.70
2019-03-24T08:32:46.233Z,75.00
2019-03-24T08:33:46.230Z,75.80
2019-03-24T08:34:48.354Z,68.30
2019-03-24T08:35:46.233Z,75.40
2019-03-24T08:36:46.255Z,72.80
2019-03-24T08:37:46.228Z,78.50
2019-03-24T08:38:46.222Z,72.80
2019-03-24T08:39:46.221Z,78.80
2019-03-24T08:40:46.250Z,73.30
2019-03-24T08:41:46.218Z,76.70
2019-03-24T08:42:46.221Z,76.60
2019-03-24T08:43:46.214Z,73.50
2019-03-24T08:44:46.216Z,69.00
2019-03-24T08:45:46.238Z,73.30
2019-03-24T08:46:47.200Z,79.70
2019-03-24T08:47:46.214Z,76.20
2019-03-24T08:48:46.206Z,71.90
2019-03-24T08:49:46.205Z,70.20
2019-03-24T08:50:46.233Z,79.00
2019-03-24T08:51:46.203Z,83.90
2019-03-24T08:52:46.198Z,79.60
2019-03-24T08:53:46.203Z,74.40
2019-03-24T08:54:46.194Z,77.20
2019-03-24T08:55:46.218Z,80.90
2019-03-24T08:56:46.197Z,77.70
2019-03-24T08:57:46.191Z,71.60
2019-03-24T08:58:46.187Z,76.80
2019-03-24T08:59:46.189Z,73.80
2019-03-24T09:00:46.215Z,71.50
2019-03-24T09:01:46.213Z,76.90
2019-03-24T09:02:46.229Z,72.20
2019-03-24T09:03:46.201Z,77.00
2019-03-24T09:04:46.178Z,70.40
2019-03-24T09:05:46.208Z,74.30
2019-03-24T09:06:46.178Z,76.70
2019-03-24T09:07:46.180Z,74.60
2019-03-24T09:08:46.176Z,78.90
2019-03-24T09:09:46.172Z,83.40
2019-03-24T09:10:46.195Z,77.20
2019-03-24T09:11:46.195Z,88.70
2019-03-24T09:12:46.232Z,81.60
2019-03-24T09:13:46.176Z,76.30
2019-03-24T09:14:46.160Z,81.60
2019-03-24T09:15:46.161Z,86.50
2019-03-24T09:16:46.187Z,81.80
2019-03-24T09:17:46.185Z,75.70
2019-03-24T09:18:52.675Z,77.10
2019-03-24T09:19:46.155Z,74.70
2019-03-24T09:20:46.155Z,78.90
2019-03-24T09:21:46.179Z,73.00
2019-03-24T09:22:46.154Z,80.70
2019-03-24T09:23:46.145Z,75.90
2019-03-24T09:24:46.147Z,76.50
2019-03-24T09:25:46.154Z,80.20
2019-03-24T09:26:46.172Z,76.30
2019-03-24T09:27:46.145Z,73.80
2019-03-24T09:28:46.140Z,75.10
2019-03-24T09:29:46.141Z,73.90
2019-03-24T09:30:46.136Z,79.20
2019-03-24T09:31:46.166Z,75.30
2019-03-24T09:32:46.134Z,76.90
2019-03-24T09:33:46.136Z,78.60
2019-03-24T09:34:46.136Z,78.20
2019-03-24T09:35:46.130Z,70.60
2019-03-24T09:36:46.156Z,76.00
2019-03-24T09:37:46.128Z,76.30
2019-03-24T09:38:46.123Z,69.50
2019-03-24T09:39:46.124Z,77.50
2019-03-24T09:40:46.126Z,72.20
2019-03-24T09:41:46.154Z,72.40
2019-03-24T09:42:46.121Z,78.30
2019-03-24T09:43:46.117Z,82.40
2019-03-24T09:44:46.117Z,74.80
2019-03-24T09:45:46.115Z,76.80
2019-03-24T09:46:46.136Z,71.80
2019-03-24T09:47:46.109Z,68.70
2019-03-24T09:48:46.111Z,76.10
2019-03-24T09:49:46.114Z,72.90
2019-03-24T09:50:46.110Z,78.50
2019-03-24T09:51:46.132Z,73.40
2019-03-24T09:52:46.125Z,68.10
2019-03-24T09:53:46.102Z,72.20
2019-03-24T09:54:46.098Z,68.20
2019-03-24T09:55:46.102Z,69.70
2019-03-24T09:56:46.097Z,72.10
2019-03-24T09:57:46.122Z,68.40
2019-03-24T09:58:46.096Z,69.40
2019-03-24T09:59:46.109Z,68.70
2019-03-24T10:00:46.089Z,69.00
2019-03-24T10:01:46.089Z,70.20
2019-03-24T10:02:46.111Z,71.60
2019-03-24T10:03:46.091Z,68.90
2019-03-24T10:04:46.085Z,75.10
2019-03-24T10:05:46.081Z,73.60
2019-03-24T10:06:46.086Z,68.90
2019-03-24T10:07:46.111Z,73.00
2019-03-24T10:08:47.360Z,74.80
2019-03-24T10:09:46.078Z,79.40
2019-03-24T10:10:46.078Z,71.40
2019-03-24T10:11:46.070Z,71.10
2019-03-24T10:12:46.098Z,71.20
2019-03-24T10:13:46.070Z,75.30
2019-03-24T10:14:46.071Z,73.40
2019-03-24T10:15:46.066Z,73.60
2019-03-24T10:16:46.097Z,65.40
2019-03-24T10:17:46.066Z,71.00
2019-03-24T10:18:46.094Z,69.20
2019-03-24T10:19:46.808Z,73.30
2019-03-24T10:20:46.060Z,76.10
2019-03-24T10:21:46.058Z,73.60
2019-03-24T10:22:46.058Z,79.00
2019-03-24T10:23:46.083Z,76.60
2019-03-24T10:24:46.057Z,72.60
2019-03-24T10:25:46.054Z,67.20
2019-03-24T10:26:46.052Z,70.60
2019-03-24T10:27:46.054Z,68.40
2019-03-24T10:28:46.075Z,69.00
2019-03-24T10:29:46.046Z,68.50
2019-03-24T10:30:46.048Z,72.90
2019-03-24T10:31:46.043Z,68.50
2019-03-24T10:32:46.047Z,79.30
2019-03-24T10:33:46.071Z,67.80
2019-03-24T10:34:46.043Z,70.80
2019-03-24T10:35:46.039Z,70.40
2019-03-24T10:36:46.035Z,72.30
2019-03-24T10:37:46.036Z,70.50
2019-03-24T10:38:46.060Z,71.40
2019-03-24T10:39:46.286Z,71.10
2019-03-24T10:40:46.035Z,62.10
2019-03-24T10:41:46.033Z,69.80
2019-03-24T10:42:46.061Z,67.00
2019-03-24T10:43:46.027Z,66.20
2019-03-24T10:44:46.027Z,71.50
2019-03-24T10:45:46.028Z,67.90
2019-03-24T10:46:46.024Z,70.30
2019-03-24T10:47:46.044Z,68.80
2019-03-24T10:48:46.049Z,68.00
2019-03-24T10:49:46.816Z,74.40
2019-03-24T10:50:46.019Z,72.10
2019-03-24T10:51:46.016Z,74.20
2019-03-24T10:52:46.033Z,71.50
2019-03-24T10:53:46.045Z,69.20
2019-03-24T10:54:46.021Z,70.40
2019-03-24T10:55:46.808Z,70.70
2019-03-24T10:56:46.012Z,68.70
2019-03-24T10:57:46.804Z,68.50
2019-03-24T10:58:46.040Z,65.80
2019-03-24T10:59:46.008Z,65.30
2019-03-24T11:00:46.004Z,71.60
2019-03-24T11:01:46.163Z,66.60
2019-03-24T11:02:46.038Z,69.80
2019-03-24T11:03:46.004Z,66.30
2019-03-24T11:04:46.000Z,70.30
2019-03-24T11:05:46.002Z,64.90
2019-03-24T11:06:45.995Z,73.10
2019-03-24T11:07:46.024Z,68.10
2019-03-24T11:08:45.992Z,66.60
2019-03-24T11:09:45.998Z,67.40
2019-03-24T11:10:46.809Z,61.00
2019-03-24T11:11:45.990Z,57.70
2019-03-24T11:12:46.021Z,58.10
2019-03-24T11:13:56.372Z,65.50
2019-03-24T11:14:45.989Z,63.70
2019-03-24T11:15:46.111Z,63.80
2019-03-24T11:16:45.988Z,60.10
2019-03-24T11:17:46.011Z,55.40
2019-03-24T11:18:45.982Z,55.00
2019-03-24T11:19:45.983Z,55.10
2019-03-24T11:20:45.982Z,61.40
2019-03-24T11:21:46.104Z,58.70
2019-03-24T11:22:46.005Z,61.50
2019-03-24T11:23:45.973Z,60.70
2019-03-24T11:24:45.978Z,63.80
2019-03-24T11:25:47.677Z,62.50
2019-03-24T11:26:48.251Z,61.40
2019-03-24T11:27:45.998Z,60.60
2019-03-24T11:28:46.004Z,64.30
2019-03-24T11:29:45.970Z,61.10
2019-03-24T11:30:47.340Z,58.80
2019-03-24T11:31:45.965Z,61.00
2019-03-24T11:32:45.966Z,57.80
2019-03-24T11:33:45.987Z,61.80
2019-03-24T11:34:47.684Z,63.50
2019-03-24T11:35:45.962Z,61.40
2019-03-24T11:36:46.861Z,59.30
2019-03-24T11:37:45.986Z,57.80
2019-03-24T11:38:46.818Z,61.90
2019-03-24T11:39:45.963Z,60.70
2019-03-24T11:40:45.955Z,56.20
2019-03-24T11:41:45.959Z,59.90
2019-03-24T11:42:46.456Z,62.20
2019-03-24T11:43:45.934Z,58.90
2019-03-24T11:44:45.971Z,59.60
2019-03-24T11:45:45.951Z,53.20
2019-03-24T11:46:45.951Z,52.50
2019-03-24T11:47:47.252Z,53.00
2019-03-24T11:48:46.677Z,57.10
2019-03-24T11:49:48.175Z,57.80
2019-03-24T11:50:45.976Z,58.00
2019-03-24T11:51:46.084Z,55.10
2019-03-24T11:52:45.972Z,53.40
2019-03-24T11:53:45.943Z,48.80
2019-03-24T11:54:46.220Z,47.80
2019-03-24T11:55:45.939Z,46.10
2019-03-24T11:56:45.939Z,55.30
2019-03-24T11:57:46.398Z,52.00
2019-03-24T11:58:46.726Z,50.30
2019-03-24T11:59:45.935Z,48.30
2019-03-24T12:00:45.932Z,48.70
2019-03-24T12:01:45.979Z,48.30
2019-03-24T12:02:45.960Z,53.10
2019-03-24T12:03:45.941Z,53.30
2019-03-24T12:04:45.944Z,54.30
2019-03-24T12:05:45.934Z,55.40
2019-03-24T12:06:45.928Z,58.80
2019-03-24T12:07:45.956Z,57.80
2019-03-24T12:08:45.930Z,50.90
2019-03-24T12:09:45.928Z,59.00
2019-03-24T12:10:45.934Z,58.30
2019-03-24T12:11:45.924Z,54.30
2019-03-24T12:12:45.953Z,51.70
2019-03-24T12:13:45.924Z,49.70
2019-03-24T12:14:45.925Z,54.10
2019-03-24T12:15:45.921Z,55.80
2019-03-24T12:16:45.922Z,48.30
2019-03-24T12:17:45.949Z,48.20
2019-03-24T12:18:46.824Z,49.10
2019-03-24T12:19:56.264Z,51.90
2019-03-24T12:20:45.917Z,50.00
2019-03-24T12:21:45.939Z,51.60
2019-03-24T12:22:45.941Z,51.50
2019-03-24T12:23:45.918Z,47.20
2019-03-24T12:24:45.917Z,46.00
2019-03-24T12:25:45.917Z,46.30
2019-03-24T12:26:45.915Z,43.40
2019-03-24T12:27:45.958Z,43.60
2019-03-24T12:28:45.913Z,44.10
2019-03-24T12:29:45.913Z,46.10
2019-03-24T12:30:45.912Z,48.60
2019-03-24T12:31:45.908Z,40.20
2019-03-24T12:32:45.938Z,42.20
2019-03-24T12:33:45.911Z,41.90
2019-03-24T12:34:45.908Z,42.50
2019-03-24T12:35:45.909Z,40.40
2019-03-24T12:36:45.905Z,45.10
2019-03-24T12:37:45.936Z,44.20
2019-03-24T12:38:45.920Z,39.90
2019-03-24T12:39:45.904Z,38.30
2019-03-24T12:40:45.908Z,43.70
2019-03-24T12:41:45.910Z,42.60
2019-03-24T12:42:45.939Z,42.30
2019-03-24T12:43:45.906Z,41.70
2019-03-24T12:44:45.906Z,43.20
2019-03-24T12:45:45.910Z,40.00